Country
Station

 

Weather  for  Monroe, Monroe Regional Airport  -  United States    United States

  
19 °C (66 °F)
    
 
 

Current METAR for Monroe, Monroe Regional Airport is :

KMLU 192053Z 36010KT 10SM CLR 19/04 A3027 RMK AO2 SLP249 T01890044 58014

 

This is a report for Monroe, Monroe Regional Airport - United States.
 
The report was made 36 minutes ago, at 20:53 UTC .
The wind was blowing at a speed of 5.1 meters per second (11.5 miles per hour) from north (360°).
 
The temperature was 19 °C (66 °F), with a dew-point at 4 °C (39 °F).
The atmospheric pressure was 1025 hPa (30.27 inHg).
The relative humidity was 37.0%.
 
The sky was clear.
 
The overall visibility was 16.1 kilometers (10.0 miles).
 

 
 
 
 

Country :   A   B   C   D   E   F   G   H   I   J   K   L   M   N   O   P   Q   R   S   T   U   V   W   Y   Z

 

Site Info  |  Disclaimer  |  Credits  |  Privacy
Contact us  |  Add to favorites
© 2013-2018 METARs - All rights reserved